To NAV CANADA Home Page Login to a new session Search on AWWS site Feedback and Comments Disclaimer Vers la page française équivalente Tips FAQ What's new on the site To the Forecasts and Observations / NOTAM section To "File a Flight Plan" website Publications and other links Update of the User's profile FIC Telephone Numbers My Weather Data Folder Route Weather Data Regional Weather Data Local Weather Data To the Forecasts and Observations / NOTAM section
Request Generated 04/30/2017 at 05:11:21 UTC . Weather information available at that time is displayed.

METAR/TAF

CALGARY INTL/AB    

METAR CYYC 300500Z 21006KT 15SM BKN088 09/M03 A2984 RMK AC7 SLP127
DENSITY ALT 3700FT=
METAR CYYC 300400Z 23004KT 210V280 15SM BKN097 10/M05 A2986 RMK AC7
AC FLOCCUS SLP134 DENSITY ALT 3800FT=
METAR CYYC 300300Z 27006KT 20SM FEW056 BKN120 10/M06 A2988 RMK SC1AC6
SLP143 DENSITY ALT 3800FT=

TAF CYYC 300241Z 3003/3024 29008KT P6SM SCT090 BKN220
FM300500 21008KT P6SM FEW090 BKN120
FM301100 24006KT P6SM FEW080 SCT150
BECMG 3013/3015 27012G22KT
FM301700 34015G25KT P6SM BKN080
FM302000 35012KT P6SM VCSH BKN060 TEMPO 3020/3024 P6SM -SHRA
BKN050 PROB30 3022/3024 VRB25G35KT 5SM TSRA BKN040CB
RMK NXT FCST BY 300600Z=
Your time UTC time
Weather data provided by Environment Canada and NAV CANADA